sensor_id;sensor_type;location;lat;lon;timestamp;pressure;altitude;pressure_sealevel;temperature;humidity
50226;BME280;36113;50.742;6.432;2024-03-29T00:00:40;96567.28;;;6.61;67.13
50226;BME280;36113;50.742;6.432;2024-03-29T00:03:06;96565.88;;;6.64;67.04
50226;BME280;36113;50.742;6.432;2024-03-29T00:05:32;96564.06;;;6.59;67.33
50226;BME280;36113;50.742;6.432;2024-03-29T00:07:58;96575.47;;;6.56;67.44
50226;BME280;36113;50.742;6.432;2024-03-29T00:10:23;96555.81;;;6.42;67.74
50226;BME280;36113;50.742;6.432;2024-03-29T00:12:49;96551.09;;;6.48;67.63
50226;BME280;36113;50.742;6.432;2024-03-29T00:15:14;96570.47;;;6.63;66.91
50226;BME280;36113;50.742;6.432;2024-03-29T00:17:39;96569.88;;;6.67;66.94
50226;BME280;36113;50.742;6.432;2024-03-29T00:20:05;96570.97;;;6.66;66.95
50226;BME280;36113;50.742;6.432;2024-03-29T00:22:31;96574.97;;;6.68;66.78
50226;BME280;36113;50.742;6.432;2024-03-29T00:24:57;96548.28;;;6.53;66.84
50226;BME280;36113;50.742;6.432;2024-03-29T00:27:22;96553.19;;;6.51;67.22
50226;BME280;36113;50.742;6.432;2024-03-29T00:29:50;96542.78;;;6.44;67.49
50226;BME280;36113;50.742;6.432;2024-03-29T00:32:20;96573.16;;;6.63;67.43
50226;BME280;36113;50.742;6.432;2024-03-29T00:34:50;96560.78;;;6.62;66.60
50226;BME280;36113;50.742;6.432;2024-03-29T00:37:16;96577.38;;;6.56;67.06
50226;BME280;36113;50.742;6.432;2024-03-29T00:39:41;96582.88;;;6.65;66.72
50226;BME280;36113;50.742;6.432;2024-03-29T00:42:07;96589.06;;;6.65;66.73
50226;BME280;36113;50.742;6.432;2024-03-29T00:44:34;96553.09;;;6.42;66.74
50226;BME280;36113;50.742;6.432;2024-03-29T00:47:00;96578.97;;;6.57;66.46
50226;BME280;36113;50.742;6.432;2024-03-29T00:49:26;96594.28;;;6.75;66.55
50226;BME280;36113;50.742;6.432;2024-03-29T00:51:51;96594.47;;;6.79;66.61
50226;BME280;36113;50.742;6.432;2024-03-29T00:54:16;96572.19;;;6.73;66.29
50226;BME280;36113;50.742;6.432;2024-03-29T00:56:43;96565.06;;;6.91;65.99
50226;BME280;36113;50.742;6.432;2024-03-29T00:59:09;96541.47;;;6.83;65.39
50226;BME280;36113;50.742;6.432;2024-03-29T01:01:34;96525.97;;;6.89;65.43
50226;BME280;36113;50.742;6.432;2024-03-29T01:03:59;96546.41;;;7.03;65.46
50226;BME280;36113;50.742;6.432;2024-03-29T01:06:25;96535.53;;;6.95;65.51
50226;BME280;36113;50.742;6.432;2024-03-29T01:08:50;96547.53;;;7.02;65.63
50226;BME280;36113;50.742;6.432;2024-03-29T01:11:16;96537.34;;;6.86;65.03
50226;BME280;36113;50.742;6.432;2024-03-29T01:13:41;96564.09;;;7.10;64.97
50226;BME280;36113;50.742;6.432;2024-03-29T01:16:07;96543.53;;;7.00;64.84
50226;BME280;36113;50.742;6.432;2024-03-29T01:18:32;96579.69;;;7.27;64.52
50226;BME280;36113;50.742;6.432;2024-03-29T01:20:58;96568.00;;;7.17;64.26
50226;BME280;36113;50.742;6.432;2024-03-29T01:23:24;96584.66;;;7.33;64.21
50226;BME280;36113;50.742;6.432;2024-03-29T01:25:49;96572.66;;;7.25;64.08
50226;BME280;36113;50.742;6.432;2024-03-29T01:28:15;96587.53;;;7.37;64.38
50226;BME280;36113;50.742;6.432;2024-03-29T01:30:40;96565.25;;;7.31;63.85
50226;BME280;36113;50.742;6.432;2024-03-29T01:33:06;96552.75;;;7.35;63.70
50226;BME280;36113;50.742;6.432;2024-03-29T01:35:31;96560.59;;;7.45;62.26
50226;BME280;36113;50.742;6.432;2024-03-29T01:37:56;96579.66;;;7.63;61.61
50226;BME280;36113;50.742;6.432;2024-03-29T01:40:22;96558.50;;;7.65;61.01
50226;BME280;36113;50.742;6.432;2024-03-29T01:42:47;96570.50;;;7.73;61.42
50226;BME280;36113;50.742;6.432;2024-03-29T01:45:12;96557.16;;;7.76;60.35
50226;BME280;36113;50.742;6.432;2024-03-29T01:47:41;96557.22;;;7.85;60.24
50226;BME280;36113;50.742;6.432;2024-03-29T01:50:06;96556.56;;;7.88;60.39
50226;BME280;36113;50.742;6.432;2024-03-29T01:52:32;96570.28;;;7.92;60.57
50226;BME280;36113;50.742;6.432;2024-03-29T01:54:58;96555.50;;;7.89;60.60
50226;BME280;36113;50.742;6.432;2024-03-29T01:57:23;96582.16;;;8.04;60.61
50226;BME280;36113;50.742;6.432;2024-03-29T01:59:49;96577.84;;;8.03;60.90
50226;BME280;36113;50.742;6.432;2024-03-29T02:02:15;96568.94;;;8.03;61.42
50226;BME280;36113;50.742;6.432;2024-03-29T02:04:41;96548.50;;;7.97;61.25
50226;BME280;36113;50.742;6.432;2024-03-29T02:07:06;96558.41;;;8.01;62.02
50226;BME280;36113;50.742;6.432;2024-03-29T02:09:32;96551.56;;;7.95;62.74
50226;BME280;36113;50.742;6.432;2024-03-29T02:11:57;96546.44;;;7.94;62.46
50226;BME280;36113;50.742;6.432;2024-03-29T02:14:23;96557.75;;;7.96;63.29
50226;BME280;36113;50.742;6.432;2024-03-29T02:16:48;96551.34;;;7.92;63.58
50226;BME280;36113;50.742;6.432;2024-03-29T02:19:14;96546.03;;;7.78;63.92
50226;BME280;36113;50.742;6.432;2024-03-29T02:21:43;96551.00;;;7.84;64.40
50226;BME280;36113;50.742;6.432;2024-03-29T02:24:10;96551.00;;;7.84;64.61
50226;BME280;36113;50.742;6.432;2024-03-29T02:26:38;96539.34;;;7.75;64.25
50226;BME280;36113;50.742;6.432;2024-03-29T02:29:10;96562.13;;;7.83;64.95
50226;BME280;36113;50.742;6.432;2024-03-29T02:31:35;96553.22;;;7.82;65.15
50226;BME280;36113;50.742;6.432;2024-03-29T02:34:00;96539.19;;;7.80;64.77
50226;BME280;36113;50.742;6.432;2024-03-29T02:36:26;96540.13;;;7.76;64.91
50226;BME280;36113;50.742;6.432;2024-03-29T02:38:51;96539.84;;;7.77;65.24
50226;BME280;36113;50.742;6.432;2024-03-29T02:41:17;96516.84;;;7.66;65.40
50226;BME280;36113;50.742;6.432;2024-03-29T02:43:42;96520.47;;;7.61;65.34
50226;BME280;36113;50.742;6.432;2024-03-29T02:46:07;96523.00;;;7.58;65.80
50226;BME280;36113;50.742;6.432;2024-03-29T02:48:32;96522.56;;;7.64;65.40
50226;BME280;36113;50.742;6.432;2024-03-29T02:50:58;96512.97;;;7.58;65.16
50226;BME280;36113;50.742;6.432;2024-03-29T02:53:23;96507.38;;;7.55;66.02
50226;BME280;36113;50.742;6.432;2024-03-29T02:55:48;96522.06;;;7.62;66.16
50226;BME280;36113;50.742;6.432;2024-03-29T02:58:14;96522.69;;;7.59;66.25
50226;BME280;36113;50.742;6.432;2024-03-29T03:00:40;96515.50;;;7.55;65.81
50226;BME280;36113;50.742;6.432;2024-03-29T03:03:05;96522.81;;;7.54;66.06
50226;BME280;36113;50.742;6.432;2024-03-29T03:05:30;96497.13;;;7.43;66.08
50226;BME280;36113;50.742;6.432;2024-03-29T03:07:58;96496.63;;;7.41;65.95
50226;BME280;36113;50.742;6.432;2024-03-29T03:10:45;96504.03;;;7.49;66.16
50226;BME280;36113;50.742;6.432;2024-03-29T03:13:29;96520.25;;;7.49;66.26
50226;BME280;36113;50.742;6.432;2024-03-29T03:15:55;96486.13;;;7.39;66.43
50226;BME280;36113;50.742;6.432;2024-03-29T03:18:21;96467.78;;;7.28;67.15
50226;BME280;36113;50.742;6.432;2024-03-29T03:20:52;96488.16;;;7.34;67.46
50226;BME280;36113;50.742;6.432;2024-03-29T03:23:18;96469.19;;;7.25;67.61
50226;BME280;36113;50.742;6.432;2024-03-29T03:25:44;96471.69;;;7.21;68.18
50226;BME280;36113;50.742;6.432;2024-03-29T03:28:09;96480.94;;;7.20;68.80
50226;BME280;36113;50.742;6.432;2024-03-29T03:30:38;96498.56;;;7.18;69.06
50226;BME280;36113;50.742;6.432;2024-03-29T03:33:04;96484.47;;;7.07;69.31
50226;BME280;36113;50.742;6.432;2024-03-29T03:35:30;96480.91;;;6.98;69.66
50226;BME280;36113;50.742;6.432;2024-03-29T03:37:55;96499.50;;;6.99;69.64
50226;BME280;36113;50.742;6.432;2024-03-29T03:40:21;96486.34;;;6.84;69.95
50226;BME280;36113;50.742;6.432;2024-03-29T03:42:46;96502.94;;;6.91;70.37
50226;BME280;36113;50.742;6.432;2024-03-29T03:45:12;96512.81;;;6.96;70.29
50226;BME280;36113;50.742;6.432;2024-03-29T03:47:38;96507.06;;;6.89;70.62
50226;BME280;36113;50.742;6.432;2024-03-29T03:50:04;96503.34;;;6.84;70.48
50226;BME280;36113;50.742;6.432;2024-03-29T03:52:29;96512.34;;;6.94;70.67
50226;BME280;36113;50.742;6.432;2024-03-29T03:54:54;96499.84;;;6.84;71.10
50226;BME280;36113;50.742;6.432;2024-03-29T03:57:20;96502.94;;;6.91;71.74
50226;BME280;36113;50.742;6.432;2024-03-29T03:59:45;96480.94;;;6.84;71.64
50226;BME280;36113;50.742;6.432;2024-03-29T04:02:10;96472.75;;;6.89;71.98
50226;BME280;36113;50.742;6.432;2024-03-29T04:04:36;96477.03;;;6.90;71.87
50226;BME280;36113;50.742;6.432;2024-03-29T04:07:01;96473.81;;;6.88;71.86
50226;BME280;36113;50.742;6.432;2024-03-29T04:09:27;96474.94;;;6.87;71.77
50226;BME280;36113;50.742;6.432;2024-03-29T04:11:52;96479.72;;;6.90;71.72
50226;BME280;36113;50.742;6.432;2024-03-29T04:14:18;96479.72;;;6.90;72.03
50226;BME280;36113;50.742;6.432;2024-03-29T04:16:43;96454.06;;;6.79;72.13
50226;BME280;36113;50.742;6.432;2024-03-29T04:19:08;96440.47;;;6.70;72.32
50226;BME280;36113;50.742;6.432;2024-03-29T04:21:34;96461.84;;;6.80;72.11
50226;BME280;36113;50.742;6.432;2024-03-29T04:23:59;96454.97;;;6.74;72.65
50226;BME280;36113;50.742;6.432;2024-03-29T04:26:24;96456.88;;;6.74;72.13
50226;BME280;36113;50.742;6.432;2024-03-29T04:28:50;96464.34;;;6.77;72.12
50226;BME280;36113;50.742;6.432;2024-03-29T04:31:15;96430.84;;;6.55;71.87
50226;BME280;36113;50.742;6.432;2024-03-29T04:33:41;96452.56;;;6.73;72.10
50226;BME280;36113;50.742;6.432;2024-03-29T04:36:06;96437.59;;;6.67;72.09
50226;BME280;36113;50.742;6.432;2024-03-29T04:38:32;96449.56;;;6.74;71.86
50226;BME280;36113;50.742;6.432;2024-03-29T04:40:58;96452.97;;;6.80;71.49
50226;BME280;36113;50.742;6.432;2024-03-29T04:43:28;96454.25;;;6.82;71.57
50226;BME280;36113;50.742;6.432;2024-03-29T04:46:12;96464.56;;;6.80;72.54
50226;BME280;36113;50.742;6.432;2024-03-29T04:48:38;96456.09;;;6.73;72.68
50226;BME280;36113;50.742;6.432;2024-03-29T04:51:04;96446.50;;;6.67;73.46
50226;BME280;36113;50.742;6.432;2024-03-29T04:53:29;96441.00;;;6.58;74.28
50226;BME280;36113;50.742;6.432;2024-03-29T04:55:57;96409.09;;;6.38;75.24
50226;BME280;36113;50.742;6.432;2024-03-29T04:58:24;96447.91;;;6.65;75.30
50226;BME280;36113;50.742;6.432;2024-03-29T05:00:50;96447.00;;;6.69;75.24
50226;BME280;36113;50.742;6.432;2024-03-29T05:03:20;96446.06;;;6.74;76.18
50226;BME280;36113;50.742;6.432;2024-03-29T05:05:46;96450.84;;;6.77;76.37
50226;BME280;36113;50.742;6.432;2024-03-29T05:08:11;96440.06;;;6.77;76.51
50226;BME280;36113;50.742;6.432;2024-03-29T05:10:38;96436.75;;;6.80;77.18
50226;BME280;36113;50.742;6.432;2024-03-29T05:13:04;96448.31;;;6.94;77.43
50226;BME280;36113;50.742;6.432;2024-03-29T05:15:29;96450.09;;;6.99;78.13
50226;BME280;36113;50.742;6.432;2024-03-29T05:17:55;96429.69;;;6.93;78.37
50226;BME280;36113;50.742;6.432;2024-03-29T05:20:20;96464.78;;;7.07;78.88
50226;BME280;36113;50.742;6.432;2024-03-29T05:22:45;96448.88;;;7.05;79.96
50226;BME280;36113;50.742;6.432;2024-03-29T05:25:11;96456.19;;;7.04;80.84
50226;BME280;36113;50.742;6.432;2024-03-29T05:27:36;96440.19;;;7.17;81.56
50226;BME280;36113;50.742;6.432;2024-03-29T05:30:02;96442.97;;;7.25;82.12
50226;BME280;36113;50.742;6.432;2024-03-29T05:32:28;96422.75;;;7.23;83.01
50226;BME280;36113;50.742;6.432;2024-03-29T05:34:54;96429.81;;;7.33;82.82
50226;BME280;36113;50.742;6.432;2024-03-29T05:37:19;96431.28;;;7.39;83.04
50226;BME280;36113;50.742;6.432;2024-03-29T05:39:45;96420.59;;;7.34;83.34
50226;BME280;36113;50.742;6.432;2024-03-29T05:42:10;96445.63;;;7.48;83.92
50226;BME280;36113;50.742;6.432;2024-03-29T05:44:37;96409.50;;;7.35;84.06
50226;BME280;36113;50.742;6.432;2024-03-29T05:47:03;96388.63;;;7.27;84.70
50226;BME280;36113;50.742;6.432;2024-03-29T05:49:30;96420.72;;;7.51;85.12
50226;BME280;36113;50.742;6.432;2024-03-29T05:51:55;96404.16;;;7.53;85.26
50226;BME280;36113;50.742;6.432;2024-03-29T05:54:21;96410.53;;;7.57;85.08
50226;BME280;36113;50.742;6.432;2024-03-29T05:56:48;96403.56;;;7.56;84.87
50226;BME280;36113;50.742;6.432;2024-03-29T05:59:13;96422.69;;;7.68;84.93
50226;BME280;36113;50.742;6.432;2024-03-29T06:01:38;96414.72;;;7.63;84.73
50226;BME280;36113;50.742;6.432;2024-03-29T06:04:04;96421.59;;;7.69;84.66
50226;BME280;36113;50.742;6.432;2024-03-29T06:06:34;96431.66;;;7.77;85.02
50226;BME280;36113;50.742;6.432;2024-03-29T06:08:59;96444.25;;;7.82;84.56
50226;BME280;36113;50.742;6.432;2024-03-29T06:11:25;96446.50;;;7.88;84.42
50226;BME280;36113;50.742;6.432;2024-03-29T06:13:50;96450.97;;;7.93;84.53
50226;BME280;36113;50.742;6.432;2024-03-29T06:16:23;96454.50;;;8.02;84.42
50226;BME280;36113;50.742;6.432;2024-03-29T06:19:07;96452.28;;;8.04;84.46
50226;BME280;36113;50.742;6.432;2024-03-29T06:21:33;96456.53;;;7.97;84.07
50226;BME280;36113;50.742;6.432;2024-03-29T06:24:08;96462.31;;;8.04;84.22
50226;BME280;36113;50.742;6.432;2024-03-29T06:26:34;96475.09;;;8.21;83.95
50226;BME280;36113;50.742;6.432;2024-03-29T06:29:00;96471.78;;;8.24;83.52
50226;BME280;36113;50.742;6.432;2024-03-29T06:31:26;96471.94;;;8.27;83.64
50226;BME280;36113;50.742;6.432;2024-03-29T06:33:51;96480.53;;;8.29;83.36
50226;BME280;36113;50.742;6.432;2024-03-29T06:36:17;96489.19;;;8.40;83.21
50226;BME280;36113;50.742;6.432;2024-03-29T06:38:42;96486.66;;;8.44;82.94
50226;BME280;36113;50.742;6.432;2024-03-29T06:41:07;96481.09;;;8.49;82.31
